createdAt,value
2022-08-20T00:02:14.094Z,2.3
2022-08-20T00:07:14.024Z,1.6
2022-08-20T00:12:20.902Z,2.1
2022-08-20T00:17:21.537Z,2
2022-08-20T00:23:14.076Z,1.6
2022-08-20T00:28:20.784Z,1.8
2022-08-20T00:33:20.793Z,1.7
2022-08-20T00:38:21.511Z,1.8
2022-08-20T00:44:14.020Z,1.6
2022-08-20T00:49:21.693Z,1.8
2022-08-20T00:55:14.040Z,1.7
2022-08-20T01:00:21.082Z,1.6
2022-08-20T01:06:14.045Z,1.5
2022-08-20T01:11:14.048Z,1.2
2022-08-20T01:16:20.793Z,0.9
2022-08-20T01:21:21.077Z,0.9
2022-08-20T01:27:14.024Z,0.8
2022-08-20T01:32:14.047Z,0.7
2022-08-20T01:37:20.821Z,0
2022-08-20T01:42:21.437Z,0
2022-08-20T01:48:14.030Z,0
2022-08-20T01:53:14.061Z,0
2022-08-20T01:58:20.831Z,0.1
2022-08-20T02:03:21.250Z,0.1
2022-08-20T02:09:16.123Z,0.3
2022-08-20T02:14:14.039Z,0.3
2022-08-20T02:19:14.050Z,0.3
2022-08-20T02:24:14.050Z,0
2022-08-20T02:29:20.860Z,0
2022-08-20T02:35:15.279Z,0
2022-08-20T02:40:30.979Z,0
2022-08-20T02:45:21.078Z,0
2022-08-20T02:50:21.209Z,0.1
2022-08-20T02:56:14.067Z,0.3
2022-08-20T03:02:14.061Z,0.2
2022-08-20T03:07:14.071Z,0
2022-08-20T03:12:14.080Z,0.1
2022-08-20T03:17:20.856Z,0.3
2022-08-20T03:22:21.640Z,0
2022-08-20T03:28:14.071Z,0.3
2022-08-20T03:33:20.841Z,0.5
2022-08-20T03:38:21.471Z,0.4
2022-08-20T03:44:14.086Z,0.3
2022-08-20T03:49:14.104Z,0.4
2022-08-20T03:54:20.853Z,0.4
2022-08-20T03:59:21.647Z,0
2022-08-20T04:05:14.081Z,0
2022-08-20T04:10:14.112Z,0
2022-08-20T04:15:14.096Z,0
2022-08-20T04:20:14.104Z,0
2022-08-20T04:25:21.338Z,0
2022-08-20T04:30:21.496Z,0
2022-08-20T04:36:14.145Z,0
2022-08-20T04:41:23.695Z,0
2022-08-20T04:46:20.859Z,0
2022-08-20T04:51:23.136Z,0
2022-08-20T04:56:21.638Z,0
2022-08-20T05:02:14.097Z,0
2022-08-20T05:07:14.109Z,0
2022-08-20T05:12:20.876Z,0
2022-08-20T05:17:21.145Z,0
2022-08-20T05:23:14.125Z,0
2022-08-20T05:28:20.909Z,0
2022-08-20T05:33:21.572Z,0
2022-08-20T05:39:14.119Z,0
2022-08-20T05:44:14.120Z,0
2022-08-20T05:49:14.137Z,0
2022-08-20T05:54:20.882Z,0
2022-08-20T05:59:24.046Z,0
2022-08-20T06:05:14.116Z,0
2022-08-20T06:11:14.147Z,0
2022-08-20T06:16:21.263Z,0
2022-08-20T06:21:21.654Z,0
2022-08-20T06:27:14.141Z,0
2022-08-20T06:32:31.966Z,0
2022-08-20T06:38:14.127Z,0
2022-08-20T06:43:21.459Z,0
2022-08-20T06:48:21.570Z,0
2022-08-20T06:54:14.116Z,0
2022-08-20T06:59:14.144Z,0
2022-08-20T07:04:20.975Z,0
2022-08-20T07:10:14.198Z,0
2022-08-20T07:15:21.393Z,0
2022-08-20T07:21:14.145Z,0
2022-08-20T07:26:14.145Z,0
2022-08-20T07:31:21.407Z,0
2022-08-20T07:37:14.143Z,0
2022-08-20T07:42:14.158Z,0
2022-08-20T07:47:20.904Z,0
2022-08-20T07:52:20.930Z,0
2022-08-20T07:57:21.577Z,0
2022-08-20T08:03:14.142Z,0
2022-08-20T08:08:21.414Z,0.1
2022-08-20T08:14:14.138Z,0.6
2022-08-20T08:19:14.160Z,0.9
2022-08-20T08:24:19.385Z,0.9
2022-08-20T08:29:20.932Z,2.4
2022-08-20T08:34:21.552Z,2.8
2022-08-20T08:39:21.632Z,4.3
2022-08-20T08:45:14.160Z,5
2022-08-20T08:50:33.373Z,4.7
2022-08-20T08:56:14.170Z,4.1
2022-08-20T09:01:54.542Z,8.3
2022-08-20T09:07:14.183Z,8
2022-08-20T09:12:21.051Z,9.4
2022-08-20T09:17:21.231Z,8.8
2022-08-20T09:23:14.161Z,8.4
2022-08-20T09:28:14.174Z,7.8
2022-08-20T09:33:20.940Z,6.1
2022-08-20T09:38:20.949Z,8.1
2022-08-20T09:44:14.203Z,7.7
2022-08-20T09:49:20.967Z,7.1
2022-08-20T09:54:20.962Z,9.1
2022-08-20T09:59:20.981Z,8.5
2022-08-20T10:04:21.722Z,9.3
2022-08-20T10:10:14.224Z,11.6
2022-08-20T10:15:20.968Z,12.7
2022-08-20T10:21:14.220Z,12.4
2022-08-20T10:26:20.969Z,11.3
2022-08-20T10:31:20.992Z,10.5
2022-08-20T10:37:14.198Z,12.1
2022-08-20T10:42:14.207Z,12.9
2022-08-20T10:47:14.231Z,14.3
2022-08-20T10:52:21.450Z,14.5
2022-08-20T10:58:14.236Z,13.4
2022-08-20T11:03:20.987Z,12
2022-08-20T11:08:25.157Z,11.5
2022-08-20T11:14:14.233Z,11.3
2022-08-20T11:19:21.198Z,10.8
2022-08-20T11:25:14.240Z,10.9
2022-08-20T11:30:20.991Z,10.9
2022-08-20T11:35:42.094Z,11.4
2022-08-20T11:40:21.187Z,11.6
2022-08-20T11:45:21.281Z,10.6
2022-08-20T11:51:14.251Z,11.9
2022-08-20T11:56:21.859Z,12.4
2022-08-20T12:02:21.091Z,12.5
2022-08-20T12:08:27.289Z,13.1
2022-08-20T12:13:21.023Z,12.3
2022-08-20T12:18:21.634Z,12.3
2022-08-20T12:23:21.715Z,11.6
2022-08-20T12:29:14.254Z,11.2
2022-08-20T12:34:14.274Z,11.5
2022-08-20T12:39:14.291Z,11.3
2022-08-20T12:44:21.636Z,11.4
2022-08-20T12:50:14.274Z,11.2
2022-08-20T12:55:21.256Z,10.8
2022-08-20T13:01:14.371Z,10.4
2022-08-20T13:06:15.400Z,10.5
2022-08-20T13:11:21.180Z,10
2022-08-20T13:16:21.955Z,10.2
2022-08-20T13:22:14.337Z,9.9
2022-08-20T13:27:21.046Z,9.5
2022-08-20T13:32:21.030Z,9.5
2022-08-20T13:37:25.101Z,9.6
2022-08-20T13:43:14.279Z,9.1
2022-08-20T13:48:21.044Z,9.5
2022-08-20T13:54:14.294Z,10.3
2022-08-20T13:59:14.318Z,10.6
2022-08-20T14:04:21.490Z,11.3
2022-08-20T14:10:14.290Z,11.2
2022-08-20T14:15:14.330Z,10.8
2022-08-20T14:20:21.824Z,10.4
2022-08-20T14:26:14.279Z,9.9
2022-08-20T14:31:14.315Z,10.1
2022-08-20T14:36:21.058Z,9.7
2022-08-20T14:42:14.308Z,9.4
2022-08-20T14:47:21.519Z,9.8
2022-08-20T14:53:14.293Z,10
2022-08-20T14:58:14.348Z,10
2022-08-20T15:03:21.089Z,10.6
2022-08-20T15:08:21.272Z,10.3
2022-08-20T15:13:22.054Z,10.5
2022-08-20T15:19:14.295Z,11.3
2022-08-20T15:24:21.079Z,11.7
2022-08-20T15:29:23.016Z,11.8
2022-08-20T15:35:14.312Z,12.2
2022-08-20T15:40:24.582Z,12.6
2022-08-20T15:45:22.330Z,12.2
2022-08-20T15:51:14.329Z,12.5
2022-08-20T15:56:14.348Z,12.6
2022-08-20T16:01:25.392Z,12.3
2022-08-20T16:06:21.506Z,12.3
2022-08-20T16:12:14.349Z,12.1
2022-08-20T16:17:21.095Z,12.4
2022-08-20T16:22:21.549Z,13
2022-08-20T16:27:21.737Z,12.8
2022-08-20T16:33:14.329Z,13
2022-08-20T16:38:14.330Z,12.9
2022-08-20T16:43:14.348Z,13.7
2022-08-20T16:48:14.350Z,13.6
2022-08-20T16:53:21.122Z,13.8
2022-08-20T16:58:21.395Z,13.8
2022-08-20T17:03:21.441Z,13
2022-08-20T17:09:14.362Z,13.6
2022-08-20T17:14:14.360Z,12.8
2022-08-20T17:19:14.351Z,14.2
2022-08-20T17:24:16.782Z,13.7
2022-08-20T17:29:14.375Z,13.2
2022-08-20T17:34:14.433Z,13.4
2022-08-20T17:39:21.165Z,13
2022-08-20T17:44:21.661Z,12.8
2022-08-20T17:50:14.393Z,12.3
2022-08-20T17:55:21.330Z,12.7
2022-08-20T18:00:21.913Z,12.7
2022-08-20T18:06:14.384Z,12
2022-08-20T18:11:21.589Z,12.5
2022-08-20T18:17:14.372Z,11.7
2022-08-20T18:22:14.389Z,11.5
2022-08-20T18:27:14.390Z,11.8
2022-08-20T18:32:15.522Z,11.4
2022-08-20T18:37:22.734Z,11
2022-08-20T18:42:22.840Z,11
2022-08-20T18:47:22.973Z,10.5
2022-08-20T18:52:23.031Z,10.5
2022-08-20T18:58:15.531Z,10.3
2022-08-20T19:03:15.538Z,10
2022-08-20T19:08:15.549Z,9.6
2022-08-20T19:13:22.919Z,9.3
2022-08-20T19:19:15.519Z,9
2022-08-20T19:24:22.649Z,9.2
2022-08-20T19:29:22.893Z,8.9
2022-08-20T19:34:22.931Z,8.7
2022-08-20T19:40:15.544Z,8.6
2022-08-20T19:45:22.307Z,8.5
2022-08-20T19:51:15.510Z,8.3
2022-08-20T19:56:22.284Z,8.1
2022-08-20T20:01:22.645Z,8
2022-08-20T20:07:15.508Z,7.9
2022-08-20T20:12:22.490Z,7.7
2022-08-20T20:17:17.811Z,7.6
2022-08-20T20:22:22.794Z,7.5
2022-08-20T20:28:15.518Z,7.3
2022-08-20T20:33:15.549Z,7.3
2022-08-20T20:38:22.312Z,7.3
2022-08-20T20:43:23.165Z,7.1
2022-08-20T20:49:15.531Z,7
2022-08-20T20:54:15.546Z,6.9
2022-08-20T20:59:22.969Z,7
2022-08-20T21:05:15.561Z,6.6
2022-08-20T21:10:15.714Z,6.6
2022-08-20T21:15:22.624Z,6.6
2022-08-20T21:21:15.527Z,6.5
2022-08-20T21:26:15.544Z,6.5
2022-08-20T21:31:22.724Z,6.2
2022-08-20T21:36:22.714Z,6.1
2022-08-20T21:41:29.501Z,6.1
2022-08-20T21:47:15.539Z,6.2
2022-08-20T21:52:22.893Z,6.2
2022-08-20T21:58:15.558Z,6.2
2022-08-20T22:03:22.580Z,6.3
2022-08-20T22:09:15.577Z,6
2022-08-20T22:14:22.339Z,5.9
2022-08-20T22:19:22.696Z,5.8
2022-08-20T22:25:22.355Z,5.4
2022-08-20T22:30:22.904Z,5
2022-08-20T22:36:15.548Z,4.9
2022-08-20T22:41:15.564Z,5.1
2022-08-20T22:46:15.581Z,5.2
2022-08-20T22:51:23.055Z,5.1
2022-08-20T22:57:15.569Z,4.9
2022-08-20T23:02:15.561Z,4.9
2022-08-20T23:07:15.570Z,4.9
2022-08-20T23:12:15.579Z,5
2022-08-20T23:17:15.589Z,4.8
2022-08-20T23:22:22.962Z,4.9
2022-08-20T23:27:23.125Z,4.9
2022-08-20T23:33:15.586Z,4.7
2022-08-20T23:38:15.593Z,4.5
2022-08-20T23:43:15.619Z,4.5
2022-08-20T23:48:22.808Z,3.8
2022-08-20T23:53:22.967Z,3.5
2022-08-20T23:59:15.592Z,3.3
